ADDS TAF Board (Experimental) INFO Settings

IDs: Format: Expanded Condensed

KTPA - Tampa Intl Arpt, FL, US

Issued at 2104 UTC 25 Apr 2015
Updated at: 2318 UTC 25 Apr 2015
Time2253Z 26/00Z 26/01Z 26/02Z 26/03Z 26/04Z 26/05Z 26/06Z 26/07Z 26/08Z 26/09Z 26/10Z 26/11Z 26/12Z
Type OBS PRVL PRVL PRVL PRVL PRVL PRVL PRVL PRVL PRVL PRVL PRVL PRVL PRVL
VIS 10 >6 >6 >6 >6 >6 >6 >6 >6 >6 >6 >6 >6 >6
CIG -- -- -- -- -- -- -- -- -- -- -- -- -- --
Cover SCT SCT SCT SCT SCT SCT SCT SCT SCT SCT SCT SCT SCT SCT
FltCat VFR VFR VFR VFR VFR VFR VFR VFR VFR VFR VFR VFR VFR VFR
WX -- -- -- -- -- -- -- -- -- -- -- -- -- --
WDir 240 220 220 220 220 220 220 230 230 230 230 230 230 230
WSpd 11 11 11 11 11 11 11 11 11 11 11 11 11 11
WGst -- -- -- -- -- -- -- -- -- -- -- -- -- --
R01/19
XWnd 9 7 7 7 7 7 7 8 8 8 8 8 8 8
HWnd -6 -9 -9 -9 -9 -9 -9 -7 -7 -7 -7 -7 -7 -7
R10/28
XWnd -6 -9 -9 -9 -9 -9 -9 -7 -7 -7 -7 -7 -7 -7
HWnd -9 -7 -7 -7 -7 -7 -7 -8 -8 -8 -8 -8 -8 -8

NOTE: TEMPO conditions in [brackets]. Keep in mind TEMPO conditions might be better (lower impact) than prevailing conditions.

Raw TAF
KTPA 252104Z 2521/2618 25012G18KT P6SM FEW030 BKN250
  FM260000 22011KT P6SM FEW030 SCT250
  FM260600 23011KT P6SM SCT015 SCT250
  FM261400 25014KT P6SM VCSH SCT025 SCT250


Raw METAR
KTPA 252253Z COR 24011KT 10SM SCT025 SCT250 29/22 A2985 RMK AO2 SLP108 T02850222
KTPA 252153Z COR 26012KT 10SM SCT025 SCT250 29/23 A2985 RMK SLP108 T02930226
KTPA 252053Z COR 25014KT 10SM FEW030 BKN250 30/20 A2986 RMK SLP112 T03000200

METAR Board
Radar Display
Forecast Discussion

TAF Board Legend

Potential Impact
Threat None Slight Moderate High
Visibility (sm) ≥5.1 5.1>X≥3 3>X≥1 <1
Ceiling (100 ft) ≥30.1 30.1>X≥10 10>X≥5 <5
Wind Speed (kt) <10 10≤X<20 20≤X<30 ≥30
Wind Gust (kt) <15 15≤X<25 25≤X<35 ≥35
Weather No Wx Reported VCTS,-TS,-FZRA,SN TS,FZRA +TS,+FZRA,+SN